sensor_id;sensor_type;location;lat;lon;timestamp;temperature;humidity
66871;DHT22;53780;44.998;9.926;2023-06-10T05:24:43;20.87;83.56
66871;DHT22;53780;44.998;9.926;2023-06-10T05:27:47;20.89;82.01
66871;DHT22;53780;44.998;9.926;2023-06-10T05:30:51;20.86;81.50
66871;DHT22;53780;44.998;9.926;2023-06-10T05:33:55;20.87;81.57
66871;DHT22;53780;44.998;9.926;2023-06-10T05:36:59;20.87;83.54
66871;DHT22;53780;44.998;9.926;2023-06-10T05:40:03;20.90;83.73
66871;DHT22;53780;44.998;9.926;2023-06-10T05:43:08;20.87;83.73
66871;DHT22;53780;44.998;9.926;2023-06-10T05:46:13;20.84;84.02
66871;DHT22;53780;44.998;9.926;2023-06-10T05:49:16;20.89;83.09
66871;DHT22;53780;44.998;9.926;2023-06-10T05:52:21;20.89;83.23
66871;DHT22;53780;44.998;9.926;2023-06-10T05:55:24;20.91;84.49
66871;DHT22;53780;44.998;9.926;2023-06-10T05:58:28;20.96;83.50
66871;DHT22;53780;44.998;9.926;2023-06-10T06:01:32;20.99;81.27
66871;DHT22;53780;44.998;9.926;2023-06-10T06:04:36;21.06;80.55
66871;DHT22;53780;44.998;9.926;2023-06-10T06:07:40;21.17;81.11
66871;DHT22;53780;44.998;9.926;2023-06-10T06:10:45;21.15;81.69
66871;DHT22;53780;44.998;9.926;2023-06-10T06:13:51;21.18;79.85
66871;DHT22;53780;44.998;9.926;2023-06-10T06:16:55;21.17;77.90
66871;DHT22;53780;44.998;9.926;2023-06-10T06:19:59;21.14;78.96
66871;DHT22;53780;44.998;9.926;2023-06-10T06:23:03;21.24;78.50
66871;DHT22;53780;44.998;9.926;2023-06-10T06:26:06;21.15;77.99
66871;DHT22;53780;44.998;9.926;2023-06-10T06:29:11;21.14;77.85
66871;DHT22;53780;44.998;9.926;2023-06-10T06:32:15;21.07;75.99
66871;DHT22;53780;44.998;9.926;2023-06-10T06:35:19;21.04;75.67
66871;DHT22;53780;44.998;9.926;2023-06-10T06:38:23;21.06;75.54
66871;DHT22;53780;44.998;9.926;2023-06-10T06:41:27;20.94;75.84
66871;DHT22;53780;44.998;9.926;2023-06-10T06:44:31;20.97;75.32
66871;DHT22;53780;44.998;9.926;2023-06-10T06:47:35;20.97;76.13
66871;DHT22;53780;44.998;9.926;2023-06-10T06:50:39;21.06;76.17
66871;DHT22;53780;44.998;9.926;2023-06-10T06:53:45;21.01;76.36
66871;DHT22;53780;44.998;9.926;2023-06-10T06:56:49;21.12;76.69
66871;DHT22;53780;44.998;9.926;2023-06-10T06:59:53;21.24;76.84
66871;DHT22;53780;44.998;9.926;2023-06-10T07:02:57;21.28;77.30
66871;DHT22;53780;44.998;9.926;2023-06-10T07:06:00;21.41;77.31
66871;DHT22;53780;44.998;9.926;2023-06-10T07:09:04;21.49;76.80
66871;DHT22;53780;44.998;9.926;2023-06-10T07:12:09;21.66;78.02
66871;DHT22;53780;44.998;9.926;2023-06-10T07:15:13;21.78;78.31
66871;DHT22;53780;44.998;9.926;2023-06-10T07:18:17;21.76;76.68
66871;DHT22;53780;44.998;9.926;2023-06-10T07:21:20;21.78;76.12
66871;DHT22;53780;44.998;9.926;2023-06-10T07:24:26;21.81;75.61
66871;DHT22;53780;44.998;9.926;2023-06-10T07:27:30;21.85;76.04
66871;DHT22;53780;44.998;9.926;2023-06-10T07:30:33;21.97;76.52
66871;DHT22;53780;44.998;9.926;2023-06-10T07:33:37;21.97;76.73
66871;DHT22;53780;44.998;9.926;2023-06-10T07:36:42;22.02;76.06
66871;DHT22;53780;44.998;9.926;2023-06-10T07:39:46;22.06;74.71
66871;DHT22;53780;44.998;9.926;2023-06-10T07:42:50;22.20;73.43
66871;DHT22;53780;44.998;9.926;2023-06-10T07:45:54;22.29;73.81
66871;DHT22;53780;44.998;9.926;2023-06-10T07:48:58;22.40;74.57
66871;DHT22;53780;44.998;9.926;2023-06-10T07:52:01;22.62;74.49
66871;DHT22;53780;44.998;9.926;2023-06-10T07:55:05;22.84;74.70
66871;DHT22;53780;44.998;9.926;2023-06-10T07:58:10;22.96;74.60
66871;DHT22;53780;44.998;9.926;2023-06-10T08:01:14;23.27;75.46
66871;DHT22;53780;44.998;9.926;2023-06-10T08:04:18;23.85;73.77
66871;DHT22;53780;44.998;9.926;2023-06-10T08:07:21;24.29;70.69
66871;DHT22;53780;44.998;9.926;2023-06-10T08:10:26;24.57;66.65
66871;DHT22;53780;44.998;9.926;2023-06-10T08:13:29;24.27;68.25
66871;DHT22;53780;44.998;9.926;2023-06-10T08:16:33;24.20;69.02
66871;DHT22;53780;44.998;9.926;2023-06-10T08:19:37;24.25;68.94
66871;DHT22;53780;44.998;9.926;2023-06-10T08:22:40;24.34;69.49
66871;DHT22;53780;44.998;9.926;2023-06-10T08:25:44;24.46;70.52
66871;DHT22;53780;44.998;9.926;2023-06-10T08:28:48;24.52;69.88
66871;DHT22;53780;44.998;9.926;2023-06-10T08:31:52;24.44;69.30
66871;DHT22;53780;44.998;9.926;2023-06-10T08:34:55;24.53;69.45
66871;DHT22;53780;44.998;9.926;2023-06-10T08:37:59;24.67;67.60
66871;DHT22;53780;44.998;9.926;2023-06-10T08:41:05;24.77;67.58
66871;DHT22;53780;44.998;9.926;2023-06-10T08:47:16;25.01;67.70
66871;DHT22;53780;44.998;9.926;2023-06-10T08:50:21;25.09;68.52
66871;DHT22;53780;44.998;9.926;2023-06-10T08:53:29;25.07;67.36
66871;DHT22;53780;44.998;9.926;2023-06-10T08:56:39;25.07;67.77
66871;DHT22;53780;44.998;9.926;2023-06-10T08:59:43;24.85;69.43
66871;DHT22;53780;44.998;9.926;2023-06-10T09:02:47;24.77;65.73
66871;DHT22;53780;44.998;9.926;2023-06-10T09:05:51;24.75;65.37
66871;DHT22;53780;44.998;9.926;2023-06-10T09:08:55;24.67;68.23
66871;DHT22;53780;44.998;9.926;2023-06-10T09:11:59;24.81;69.63
66871;DHT22;53780;44.998;9.926;2023-06-10T09:15:02;25.16;67.60
66871;DHT22;53780;44.998;9.926;2023-06-10T09:18:07;25.20;66.49
66871;DHT22;53780;44.998;9.926;2023-06-10T09:21:11;25.35;66.70
66871;DHT22;53780;44.998;9.926;2023-06-10T09:24:15;25.56;66.50
66871;DHT22;53780;44.998;9.926;2023-06-10T09:27:18;25.81;67.21
66871;DHT22;53780;44.998;9.926;2023-06-10T09:30:29;26.11;65.53
66871;DHT22;53780;44.998;9.926;2023-06-10T09:33:37;25.95;63.22
66871;DHT22;53780;44.998;9.926;2023-06-10T09:36:42;26.11;62.91
66871;DHT22;53780;44.998;9.926;2023-06-10T09:40:07;26.40;62.30
66871;DHT22;53780;44.998;9.926;2023-06-10T09:43:12;26.88;61.20
66871;DHT22;53780;44.998;9.926;2023-06-10T09:46:17;27.01;60.06
66871;DHT22;53780;44.998;9.926;2023-06-10T09:49:21;27.08;60.64
66871;DHT22;53780;44.998;9.926;2023-06-10T09:52:26;26.87;61.67
66871;DHT22;53780;44.998;9.926;2023-06-10T09:55:33;26.82;62.13
66871;DHT22;53780;44.998;9.926;2023-06-10T09:58:38;26.93;57.70
66871;DHT22;53780;44.998;9.926;2023-06-10T10:01:42;27.14;59.36
66871;DHT22;53780;44.998;9.926;2023-06-10T10:04:46;27.63;59.02
66871;DHT22;53780;44.998;9.926;2023-06-10T10:07:52;28.08;59.27
66871;DHT22;53780;44.998;9.926;2023-06-10T10:10:57;29.04;56.93
66871;DHT22;53780;44.998;9.926;2023-06-10T10:14:03;29.75;52.59
66871;DHT22;53780;44.998;9.926;2023-06-10T10:17:10;30.08;54.03
66871;DHT22;53780;44.998;9.926;2023-06-10T10:20:19;29.65;53.62
66871;DHT22;53780;44.998;9.926;2023-06-10T10:23:40;29.17;52.78
66871;DHT22;53780;44.998;9.926;2023-06-10T10:26:48;29.03;54.86
66871;DHT22;53780;44.998;9.926;2023-06-10T10:29:52;28.76;53.16
66871;DHT22;53780;44.998;9.926;2023-06-10T10:33:00;29.24;55.09
66871;DHT22;53780;44.998;9.926;2023-06-10T10:36:08;29.75;54.07
66871;DHT22;53780;44.998;9.926;2023-06-10T10:39:12;30.45;52.21
66871;DHT22;53780;44.998;9.926;2023-06-10T10:42:16;30.86;49.80
66871;DHT22;53780;44.998;9.926;2023-06-10T10:45:21;30.91;49.44
66871;DHT22;53780;44.998;9.926;2023-06-10T10:48:26;30.91;48.45
66871;DHT22;53780;44.998;9.926;2023-06-10T10:51:36;31.12;46.55
66871;DHT22;53780;44.998;9.926;2023-06-10T10:54:45;30.96;48.61
66871;DHT22;53780;44.998;9.926;2023-06-10T10:57:58;30.76;47.64
66871;DHT22;53780;44.998;9.926;2023-06-10T11:01:13;30.36;47.72
66871;DHT22;53780;44.998;9.926;2023-06-10T11:04:18;30.54;46.17
66871;DHT22;53780;44.998;9.926;2023-06-10T11:07:24;30.60;47.16
66871;DHT22;53780;44.998;9.926;2023-06-10T11:10:33;30.91;47.31
66871;DHT22;53780;44.998;9.926;2023-06-10T11:13:37;30.85;45.64
66871;DHT22;53780;44.998;9.926;2023-06-10T11:16:43;30.69;44.38
66871;DHT22;53780;44.998;9.926;2023-06-10T11:19:46;30.41;46.73
66871;DHT22;53780;44.998;9.926;2023-06-10T11:23:02;30.10;48.59
66871;DHT22;53780;44.998;9.926;2023-06-10T11:29:34;29.90;48.13
66871;DHT22;53780;44.998;9.926;2023-06-10T11:32:38;30.17;49.45
66871;DHT22;53780;44.998;9.926;2023-06-10T11:35:43;29.81;48.83
66871;DHT22;53780;44.998;9.926;2023-06-10T11:38:48;29.28;48.91
66871;DHT22;53780;44.998;9.926;2023-06-10T11:41:52;28.89;48.33
66871;DHT22;53780;44.998;9.926;2023-06-10T11:44:57;28.48;48.06
66871;DHT22;53780;44.998;9.926;2023-06-10T11:48:01;28.34;49.85
66871;DHT22;53780;44.998;9.926;2023-06-10T11:51:06;28.21;50.14
66871;DHT22;53780;44.998;9.926;2023-06-10T11:54:10;27.80;50.93
66871;DHT22;53780;44.998;9.926;2023-06-10T11:57:14;27.56;51.11
66871;DHT22;53780;44.998;9.926;2023-06-10T12:00:18;27.39;49.99
66871;DHT22;53780;44.998;9.926;2023-06-10T12:03:22;27.62;50.85
66871;DHT22;53780;44.998;9.926;2023-06-10T12:06:26;27.77;52.85
66871;DHT22;53780;44.998;9.926;2023-06-10T12:09:30;28.04;52.78
66871;DHT22;53780;44.998;9.926;2023-06-10T12:12:36;28.18;52.74
66871;DHT22;53780;44.998;9.926;2023-06-10T12:15:44;28.55;53.40
66871;DHT22;53780;44.998;9.926;2023-06-10T12:18:48;28.69;52.98
66871;DHT22;53780;44.998;9.926;2023-06-10T12:21:52;28.44;51.11
66871;DHT22;53780;44.998;9.926;2023-06-10T12:24:58;28.15;51.81
66871;DHT22;53780;44.998;9.926;2023-06-10T12:28:09;28.07;51.31
66871;DHT22;53780;44.998;9.926;2023-06-10T12:31:14;27.87;50.55
66871;DHT22;53780;44.998;9.926;2023-06-10T12:34:17;27.79;50.95
66871;DHT22;53780;44.998;9.926;2023-06-10T12:37:21;27.76;50.31
66871;DHT22;53780;44.998;9.926;2023-06-10T12:40:29;27.52;51.13
66871;DHT22;53780;44.998;9.926;2023-06-10T12:43:33;27.34;51.67
66871;DHT22;53780;44.998;9.926;2023-06-10T12:46:38;27.37;55.09
66871;DHT22;53780;44.998;9.926;2023-06-10T12:49:41;27.49;53.64
66871;DHT22;53780;44.998;9.926;2023-06-10T12:52:45;27.45;51.72
66871;DHT22;53780;44.998;9.926;2023-06-10T12:55:50;27.30;52.26
66871;DHT22;53780;44.998;9.926;2023-06-10T12:58:54;27.16;51.97
66871;DHT22;53780;44.998;9.926;2023-06-10T13:01:58;27.22;55.34
66871;DHT22;53780;44.998;9.926;2023-06-10T13:05:02;27.39;55.36
66871;DHT22;53780;44.998;9.926;2023-06-10T13:08:06;27.67;54.19
66871;DHT22;53780;44.998;9.926;2023-06-10T13:11:11;27.74;55.45
66871;DHT22;53780;44.998;9.926;2023-06-10T13:14:15;27.74;54.28
66871;DHT22;53780;44.998;9.926;2023-06-10T13:17:18;27.74;53.08
66871;DHT22;53780;44.998;9.926;2023-06-10T13:20:22;27.92;56.15
66871;DHT22;53780;44.998;9.926;2023-06-10T13:23:26;28.15;52.80
66871;DHT22;53780;44.998;9.926;2023-06-10T13:26:31;28.31;53.72
66871;DHT22;53780;44.998;9.926;2023-06-10T13:29:35;28.31;51.22
66871;DHT22;53780;44.998;9.926;2023-06-10T13:32:39;28.38;53.23
66871;DHT22;53780;44.998;9.926;2023-06-10T13:35:43;28.48;53.75
66871;DHT22;53780;44.998;9.926;2023-06-10T13:38:48;28.38;51.04
66871;DHT22;53780;44.998;9.926;2023-06-10T13:41:52;28.21;52.17
66871;DHT22;53780;44.998;9.926;2023-06-10T13:44:56;28.13;52.00
66871;DHT22;53780;44.998;9.926;2023-06-10T13:48:02;28.15;52.11
66871;DHT22;53780;44.998;9.926;2023-06-10T13:51:07;27.87;51.99
66871;DHT22;53780;44.998;9.926;2023-06-10T13:54:15;27.92;53.25
66871;DHT22;53780;44.998;9.926;2023-06-10T13:57:19;28.17;54.30
66871;DHT22;53780;44.998;9.926;2023-06-10T14:00:24;28.48;52.73
66871;DHT22;53780;44.998;9.926;2023-06-10T14:03:29;28.68;50.61
66871;DHT22;53780;44.998;9.926;2023-06-10T14:06:33;28.86;50.24
66871;DHT22;53780;44.998;9.926;2023-06-10T14:09:37;29.04;50.25
66871;DHT22;53780;44.998;9.926;2023-06-10T14:12:41;29.20;47.97
66871;DHT22;53780;44.998;9.926;2023-06-10T14:15:45;29.28;49.01
66871;DHT22;53780;44.998;9.926;2023-06-10T14:18:50;29.45;49.71
66871;DHT22;53780;44.998;9.926;2023-06-10T14:21:57;29.58;48.61
66871;DHT22;53780;44.998;9.926;2023-06-10T14:25:01;29.34;46.88
66871;DHT22;53780;44.998;9.926;2023-06-10T14:28:04;29.20;48.09
66871;DHT22;53780;44.998;9.926;2023-06-10T14:31:09;29.26;50.09
66871;DHT22;53780;44.998;9.926;2023-06-10T14:34:13;29.14;49.93
66871;DHT22;53780;44.998;9.926;2023-06-10T14:37:16;28.90;49.94
66871;DHT22;53780;44.998;9.926;2023-06-10T14:40:20;28.80;50.54
66871;DHT22;53780;44.998;9.926;2023-06-10T14:43:26;28.90;47.25
66871;DHT22;53780;44.998;9.926;2023-06-10T14:46:30;28.83;48.05
66871;DHT22;53780;44.998;9.926;2023-06-10T14:49:34;28.69;47.46
66871;DHT22;53780;44.998;9.926;2023-06-10T14:52:38;28.65;48.31
66871;DHT22;53780;44.998;9.926;2023-06-10T14:55:42;28.47;47.56
66871;DHT22;53780;44.998;9.926;2023-06-10T14:58:46;28.27;48.24
66871;DHT22;53780;44.998;9.926;2023-06-10T15:01:51;27.94;49.13
66871;DHT22;53780;44.998;9.926;2023-06-10T15:04:55;28.01;49.07
66871;DHT22;53780;44.998;9.926;2023-06-10T15:07:59;28.07;49.74
66871;DHT22;53780;44.998;9.926;2023-06-10T15:11:05;27.93;49.02
66871;DHT22;53780;44.998;9.926;2023-06-10T15:14:09;27.77;51.54
66871;DHT22;53780;44.998;9.926;2023-06-10T15:17:13;27.70;51.91
66871;DHT22;53780;44.998;9.926;2023-06-10T15:20:17;27.74;51.92
66871;DHT22;53780;44.998;9.926;2023-06-10T15:23:21;27.43;51.67
66871;DHT22;53780;44.998;9.926;2023-06-10T15:26:24;27.31;51.22
66871;DHT22;53780;44.998;9.926;2023-06-10T15:29:29;27.11;52.22
66871;DHT22;53780;44.998;9.926;2023-06-10T15:32:33;27.04;52.11
66871;DHT22;53780;44.998;9.926;2023-06-10T15:35:37;27.00;51.64
66871;DHT22;53780;44.998;9.926;2023-06-10T15:38:40;26.90;51.78
66871;DHT22;53780;44.998;9.926;2023-06-10T15:41:44;26.80;51.94
66871;DHT22;53780;44.998;9.926;2023-06-10T15:44:49;27.01;51.62
66871;DHT22;53780;44.998;9.926;2023-06-10T15:47:52;27.05;51.44
66871;DHT22;53780;44.998;9.926;2023-06-10T15:50:56;27.10;52.45
66871;DHT22;53780;44.998;9.926;2023-06-10T15:54:00;27.01;51.69
66871;DHT22;53780;44.998;9.926;2023-06-10T15:57:04;26.94;51.40
66871;DHT22;53780;44.998;9.926;2023-06-10T16:00:09;26.82;52.01
66871;DHT22;53780;44.998;9.926;2023-06-10T16:03:13;26.60;53.85
66871;DHT22;53780;44.998;9.926;2023-06-10T16:06:17;26.46;54.93
66871;DHT22;53780;44.998;9.926;2023-06-10T16:09:21;26.45;54.11
66871;DHT22;53780;44.998;9.926;2023-06-10T16:12:25;26.39;53.84
66871;DHT22;53780;44.998;9.926;2023-06-10T16:15:28;26.28;54.10
66871;DHT22;53780;44.998;9.926;2023-06-10T16:18:32;26.32;53.92
66871;DHT22;53780;44.998;9.926;2023-06-10T16:21:36;26.50;52.49
66871;DHT22;53780;44.998;9.926;2023-06-10T16:24:43;26.59;52.57
66871;DHT22;53780;44.998;9.926;2023-06-10T16:27:47;26.66;51.05
66871;DHT22;53780;44.998;9.926;2023-06-10T16:30:50;26.64;50.12
66871;DHT22;53780;44.998;9.926;2023-06-10T16:33:54;26.63;48.56
66871;DHT22;53780;44.998;9.926;2023-06-10T16:36:58;26.53;50.04
66871;DHT22;53780;44.998;9.926;2023-06-10T16:40:02;26.45;49.86
66871;DHT22;53780;44.998;9.926;2023-06-10T16:43:06;26.46;51.65
66871;DHT22;53780;44.998;9.926;2023-06-10T16:46:10;26.46;50.63
66871;DHT22;53780;44.998;9.926;2023-06-10T16:49:14;26.35;52.19
66871;DHT22;53780;44.998;9.926;2023-06-10T16:52:18;26.36;52.67
66871;DHT22;53780;44.998;9.926;2023-06-10T16:55:23;26.48;50.59
66871;DHT22;53780;44.998;9.926;2023-06-10T16:58:26;26.48;51.38
66871;DHT22;53780;44.998;9.926;2023-06-10T17:01:30;26.45;50.49
66871;DHT22;53780;44.998;9.926;2023-06-10T17:04:34;26.45;49.46
66871;DHT22;53780;44.998;9.926;2023-06-10T17:07:38;26.36;51.31
66871;DHT22;53780;44.998;9.926;2023-06-10T17:10:41;26.48;51.28
66871;DHT22;53780;44.998;9.926;2023-06-10T17:13:47;26.48;51.18
66871;DHT22;53780;44.998;9.926;2023-06-10T17:16:51;26.39;51.75
66871;DHT22;53780;44.998;9.926;2023-06-10T17:19:55;26.31;52.73
66871;DHT22;53780;44.998;9.926;2023-06-10T17:22:59;26.19;53.67
66871;DHT22;53780;44.998;9.926;2023-06-10T17:26:02;26.19;58.59
66871;DHT22;53780;44.998;9.926;2023-06-10T17:29:06;26.18;59.40
66871;DHT22;53780;44.998;9.926;2023-06-10T17:32:10;26.06;59.97
66871;DHT22;53780;44.998;9.926;2023-06-10T17:35:14;26.01;59.90
66871;DHT22;53780;44.998;9.926;2023-06-10T17:38:18;26.09;59.25
66871;DHT22;53780;44.998;9.926;2023-06-10T17:41:24;25.98;59.65
66871;DHT22;53780;44.998;9.926;2023-06-10T17:44:28;25.94;61.19
66871;DHT22;53780;44.998;9.926;2023-06-10T17:47:32;25.98;62.87
66871;DHT22;53780;44.998;9.926;2023-06-10T17:50:36;25.73;63.47
66871;DHT22;53780;44.998;9.926;2023-06-10T17:53:40;25.80;63.41
66871;DHT22;53780;44.998;9.926;2023-06-10T17:56:45;25.90;63.46
66871;DHT22;53780;44.998;9.926;2023-06-10T17:59:48;25.62;64.78
66871;DHT22;53780;44.998;9.926;2023-06-10T18:02:52;25.67;64.98
66871;DHT22;53780;44.998;9.926;2023-06-10T18:05:57;25.35;65.83
66871;DHT22;53780;44.998;9.926;2023-06-10T18:09:00;25.37;65.65
66871;DHT22;53780;44.998;9.926;2023-06-10T18:12:05;25.36;65.80
66871;DHT22;53780;44.998;9.926;2023-06-10T18:15:10;25.29;66.41
66871;DHT22;53780;44.998;9.926;2023-06-10T18:18:14;25.26;66.44
66871;DHT22;53780;44.998;9.926;2023-06-10T18:21:18;25.07;66.84
66871;DHT22;53780;44.998;9.926;2023-06-10T18:24:22;24.90;67.69
66871;DHT22;53780;44.998;9.926;2023-06-10T18:27:26;24.67;68.38
66871;DHT22;53780;44.998;9.926;2023-06-10T18:30:30;24.68;68.51
66871;DHT22;53780;44.998;9.926;2023-06-10T18:33:34;24.71;68.24
66871;DHT22;53780;44.998;9.926;2023-06-10T18:36:37;24.56;68.87
66871;DHT22;53780;44.998;9.926;2023-06-10T18:39:41;24.46;69.20
66871;DHT22;53780;44.998;9.926;2023-06-10T18:42:45;24.36;69.49
66871;DHT22;53780;44.998;9.926;2023-06-10T18:45:48;24.26;70.06
66871;DHT22;53780;44.998;9.926;2023-06-10T18:48:52;24.19;70.09
66871;DHT22;53780;44.998;9.926;2023-06-10T18:51:56;24.09;70.40
66871;DHT22;53780;44.998;9.926;2023-06-10T18:55:00;24.08;70.52
66871;DHT22;53780;44.998;9.926;2023-06-10T18:58:04;24.10;70.18
66871;DHT22;53780;44.998;9.926;2023-06-10T19:01:08;23.95;70.68
66871;DHT22;53780;44.998;9.926;2023-06-10T19:04:11;23.92;70.64
66871;DHT22;53780;44.998;9.926;2023-06-10T19:07:15;23.92;70.79
66871;DHT22;53780;44.998;9.926;2023-06-10T19:10:19;23.81;70.78
66871;DHT22;53780;44.998;9.926;2023-06-10T19:13:24;23.67;71.51
66871;DHT22;53780;44.998;9.926;2023-06-10T19:16:28;23.69;71.57
66871;DHT22;53780;44.998;9.926;2023-06-10T19:19:32;23.65;71.64
66871;DHT22;53780;44.998;9.926;2023-06-10T19:22:35;23.64;71.52
66871;DHT22;53780;44.998;9.926;2023-06-10T19:25:41;23.58;71.83
66871;DHT22;53780;44.998;9.926;2023-06-10T19:28:45;23.51;72.10
66871;DHT22;53780;44.998;9.926;2023-06-10T19:31:48;23.47;72.51
66871;DHT22;53780;44.998;9.926;2023-06-10T19:34:53;23.47;72.75
66871;DHT22;53780;44.998;9.926;2023-06-10T19:37:57;23.41;73.00
66871;DHT22;53780;44.998;9.926;2023-06-10T19:41:01;23.34;73.13
66871;DHT22;53780;44.998;9.926;2023-06-10T19:44:06;23.36;73.36
66871;DHT22;53780;44.998;9.926;2023-06-10T19:47:10;23.27;73.78
66871;DHT22;53780;44.998;9.926;2023-06-10T19:50:14;23.26;73.96
66871;DHT22;53780;44.998;9.926;2023-06-10T19:53:18;23.19;74.22
66871;DHT22;53780;44.998;9.926;2023-06-10T19:56:22;23.14;74.42
66871;DHT22;53780;44.998;9.926;2023-06-10T19:59:25;23.07;74.59
66871;DHT22;53780;44.998;9.926;2023-06-10T20:02:29;23.03;74.82
66871;DHT22;53780;44.998;9.926;2023-06-10T20:05:35;22.99;74.96
66871;DHT22;53780;44.998;9.926;2023-06-10T20:08:41;22.96;75.20
66871;DHT22;53780;44.998;9.926;2023-06-10T20:11:45;22.85;75.64
66871;DHT22;53780;44.998;9.926;2023-06-10T20:14:48;22.82;75.86
66871;DHT22;53780;44.998;9.926;2023-06-10T20:17:52;22.76;75.84
66871;DHT22;53780;44.998;9.926;2023-06-10T20:20:56;22.75;76.08
66871;DHT22;53780;44.998;9.926;2023-06-10T20:24:00;22.69;76.21
66871;DHT22;53780;44.998;9.926;2023-06-10T20:27:04;22.71;76.11
66871;DHT22;53780;44.998;9.926;2023-06-10T20:30:08;22.64;76.21
66871;DHT22;53780;44.998;9.926;2023-06-10T20:33:12;22.62;76.40
66871;DHT22;53780;44.998;9.926;2023-06-10T20:36:17;22.55;76.50
66871;DHT22;53780;44.998;9.926;2023-06-10T20:39:25;22.51;76.82
66871;DHT22;53780;44.998;9.926;2023-06-10T20:42:29;22.47;76.86
66871;DHT22;53780;44.998;9.926;2023-06-10T20:45:33;22.33;77.39
66871;DHT22;53780;44.998;9.926;2023-06-10T20:48:36;22.27;77.55
66871;DHT22;53780;44.998;9.926;2023-06-10T20:51:41;22.20;77.82
66871;DHT22;53780;44.998;9.926;2023-06-10T20:54:44;22.18;77.96
66871;DHT22;53780;44.998;9.926;2023-06-10T20:57:48;22.07;78.24
66871;DHT22;53780;44.998;9.926;2023-06-10T21:00:53;22.04;78.50
66871;DHT22;53780;44.998;9.926;2023-06-10T21:03:56;22.22;78.06
66871;DHT22;53780;44.998;9.926;2023-06-10T21:07:00;22.34;77.58
66871;DHT22;53780;44.998;9.926;2023-06-10T21:10:04;22.37;77.38
66871;DHT22;53780;44.998;9.926;2023-06-10T21:13:09;22.38;77.33
66871;DHT22;53780;44.998;9.926;2023-06-10T21:16:13;22.40;77.42
66871;DHT22;53780;44.998;9.926;2023-06-10T21:19:17;22.44;77.51
66871;DHT22;53780;44.998;9.926;2023-06-10T21:22:20;22.41;77.55
66871;DHT22;53780;44.998;9.926;2023-06-10T21:25:24;22.47;77.44
66871;DHT22;53780;44.998;9.926;2023-06-10T21:28:28;22.58;76.81
66871;DHT22;53780;44.998;9.926;2023-06-10T21:31:32;22.65;76.48
66871;DHT22;53780;44.998;9.926;2023-06-10T21:34:36;22.64;76.60
66871;DHT22;53780;44.998;9.926;2023-06-10T21:37:39;22.61;76.63
66871;DHT22;53780;44.998;9.926;2023-06-10T21:40:43;22.58;76.77
66871;DHT22;53780;44.998;9.926;2023-06-10T21:43:48;22.54;76.95
66871;DHT22;53780;44.998;9.926;2023-06-10T21:46:51;22.54;77.08
66871;DHT22;53780;44.998;9.926;2023-06-10T21:49:55;22.52;77.02
66871;DHT22;53780;44.998;9.926;2023-06-10T21:52:59;22.52;76.95
66871;DHT22;53780;44.998;9.926;2023-06-10T21:56:03;22.49;76.99
66871;DHT22;53780;44.998;9.926;2023-06-10T21:59:07;22.49;77.09
66871;DHT22;53780;44.998;9.926;2023-06-10T22:02:10;22.54;76.89
66871;DHT22;53780;44.998;9.926;2023-06-10T22:05:15;22.52;76.89
66871;DHT22;53780;44.998;9.926;2023-06-10T22:08:19;22.51;76.78
66871;DHT22;53780;44.998;9.926;2023-06-10T22:11:23;22.52;76.82
66871;DHT22;53780;44.998;9.926;2023-06-10T22:14:30;22.49;76.87
66871;DHT22;53780;44.998;9.926;2023-06-10T22:17:34;22.47;76.89
66871;DHT22;53780;44.998;9.926;2023-06-10T22:20:38;22.45;77.43
66871;DHT22;53780;44.998;9.926;2023-06-10T22:23:42;22.41;77.81
66871;DHT22;53780;44.998;9.926;2023-06-10T22:26:45;22.37;77.78
66871;DHT22;53780;44.998;9.926;2023-06-10T22:29:50;22.36;78.27
66871;DHT22;53780;44.998;9.926;2023-06-10T22:32:54;22.33;78.45
66871;DHT22;53780;44.998;9.926;2023-06-10T22:35:58;22.36;77.99
66871;DHT22;53780;44.998;9.926;2023-06-10T22:39:02;22.36;77.62
66871;DHT22;53780;44.998;9.926;2023-06-10T22:42:06;22.31;78.34
66871;DHT22;53780;44.998;9.926;2023-06-10T22:45:11;22.18;78.97
66871;DHT22;53780;44.998;9.926;2023-06-10T22:48:15;22.13;79.22
66871;DHT22;53780;44.998;9.926;2023-06-10T22:51:19;21.96;79.86
66871;DHT22;53780;44.998;9.926;2023-06-10T22:54:23;21.93;80.35
66871;DHT22;53780;44.998;9.926;2023-06-10T22:57:29;21.88;80.78
66871;DHT22;53780;44.998;9.926;2023-06-10T23:00:33;21.86;80.70
66871;DHT22;53780;44.998;9.926;2023-06-10T23:03:37;21.81;81.02
66871;DHT22;53780;44.998;9.926;2023-06-10T23:06:41;21.69;81.49
66871;DHT22;53780;44.998;9.926;2023-06-10T23:09:45;21.55;82.14
66871;DHT22;53780;44.998;9.926;2023-06-10T23:12:48;21.42;82.78
66871;DHT22;53780;44.998;9.926;2023-06-10T23:15:52;21.37;82.90
66871;DHT22;53780;44.998;9.926;2023-06-10T23:18:56;21.31;82.99
66871;DHT22;53780;44.998;9.926;2023-06-10T23:22:02;21.32;82.78
66871;DHT22;53780;44.998;9.926;2023-06-10T23:25:07;21.34;82.44
66871;DHT22;53780;44.998;9.926;2023-06-10T23:28:11;21.31;82.09
66871;DHT22;53780;44.998;9.926;2023-06-10T23:31:15;21.32;82.00
66871;DHT22;53780;44.998;9.926;2023-06-10T23:34:19;21.37;81.70
66871;DHT22;53780;44.998;9.926;2023-06-10T23:37:23;21.38;81.64
66871;DHT22;53780;44.998;9.926;2023-06-10T23:40:29;21.35;81.53
66871;DHT22;53780;44.998;9.926;2023-06-10T23:43:32;21.30;81.74
66871;DHT22;53780;44.998;9.926;2023-06-10T23:46:36;21.31;81.75
66871;DHT22;53780;44.998;9.926;2023-06-10T23:49:40;21.34;81.59
66871;DHT22;53780;44.998;9.926;2023-06-10T23:52:45;21.30;81.75
66871;DHT22;53780;44.998;9.926;2023-06-10T23:55:49;21.24;81.91
66871;DHT22;53780;44.998;9.926;2023-06-10T23:58:53;21.24;81.97
